Terminal Aerodrome Forecast
Issued by NWS

Home | Current Version | Previous Version | Text Only | Print | Product List | Glossary On
Versions: 1 2 3 4 5 6 7 8 9 10 11 12 13 14 15 16 17 18 19 20 21 22 23 24 25 26 27 28 29 30 31
000
FTUS45 KLKN 242320
TAFEKO
TAF
KEKO 242320Z 2500/2524 24008KT P6SM VCTS SCT040CB BKN080
      TEMPO 2500/2502 -SHRA BKN040 OVC060
     FM250200 VRB04KT P6SM SCT050 BKN120
     FM251800 24009KT P6SM VCSH SCT060 BKN100
      TEMPO 2520/2524 -SHRA BKN060 OVC100=

USA.gov is the U.S. government's official web portal to all federal, state and local government web resources and services.